Wetterdaten: Woche 14.09.09 - 20.09.09 (KW38)
Datum Zeit Temp. Innen Temp. Aussen UV X Diff Temp. Feuchte Inne Feuchte Auss Sonnenschein Luftdruck Regen ab 0,1 Wind Sonnenschein Windben
14.09.2009 00:00 19,4 C 12,2 C 0,0 UV-I 0,0 C 60 % 88 % 0 % 1020,9 hPa 0,0 l/m 0,5 km/h (0 Bft) 0,00 h 1,8 km/h (1 Bft)
14.09.2009 01:00 19,6 C 11,9 C 0,0 UV-I 0,0 C 60 % 90 % 0 % 1020,8 hPa 0,0 l/m 0,3 km/h (0 Bft) 0,00 h 1,2 km/h (1 Bft)
14.09.2009 02:00 19,6 C 12,4 C 0,0 UV-I 0,0 C 60 % 91 % 0 % 1020,8 hPa 0,0 l/m 0,9 km/h (0 Bft) 0,00 h 2,7 km/h (1 Bft)
14.09.2009 03:00 19,7 C 12,7 C 0,0 UV-I 0,0 C 60 % 91 % 0 % 1020,8 hPa 0,0 l/m 0,9 km/h (0 Bft) 0,00 h 2,0 km/h (1 Bft)
14.09.2009 04:00 19,7 C 12,8 C 0,0 UV-I 0,0 C 60 % 91 % 0 % 1020,7 hPa 0,0 l/m 1,2 km/h (1 Bft) 0,00 h 2,6 km/h (1 Bft)
14.09.2009 05:00 19,7 C 12,8 C 0,0 UV-I 0,0 C 60 % 90 % 0 % 1020,5 hPa 0,0 l/m 0,9 km/h (0 Bft) 0,00 h 1,7 km/h (1 Bft)
14.09.2009 06:00 19,7 C 12,7 C 0,0 UV-I 0,0 C 60 % 90 % 0 % 1020,2 hPa 0,0 l/m 0,7 km/h (0 Bft) 0,00 h 0,7 km/h (0 Bft)
14.09.2009 07:00 19,7 C 12,6 C 0,0 UV-I 0,0 C 60 % 89 % 0 % 1020,3 hPa 0,0 l/m 1,2 km/h (1 Bft) 0,00 h 1,9 km/h (1 Bft)
14.09.2009 08:00 19,8 C 12,8 C 0,2 UV-I 0,0 C 61 % 89 % 1 % 1020,7 hPa 0,0 l/m 1,7 km/h (1 Bft) 0,00 h 3,1 km/h (1 Bft)
14.09.2009 09:00 20,0 C 13,4 C 0,2 UV-I 0,3 C 61 % 88 % 9 % 1020,7 hPa 0,0 l/m 2,7 km/h (1 Bft) 0,00 h 5,0 km/h (1 Bft)
14.09.2009 10:00 20,2 C 13,9 C 0,7 UV-I 0,1 C 61 % 89 % 3 % 1020,8 hPa 0,1 l/m 3,1 km/h (1 Bft) 0,00 h 4,5 km/h (1 Bft)
14.09.2009 11:00 20,3 C 14,3 C 0,2 UV-I 0,0 C 61 % 88 % 1 % 1020,7 hPa 0,1 l/m 1,7 km/h (1 Bft) 0,00 h 2,9 km/h (1 Bft)
14.09.2009 12:00 20,6 C 15,3 C 2,5 UV-I 1,5 C 60 % 85 % 42 % 1020,3 hPa 0,0 l/m 4,1 km/h (1 Bft) 0,00 h 7,5 km/h (2 Bft)
14.09.2009 13:00 20,9 C 16,2 C 2,8 UV-I 1,5 C 59 % 80 % 42 % 1019,9 hPa 0,0 l/m 6,7 km/h (2 Bft) 0,00 h 9,0 km/h (2 Bft)
14.09.2009 14:00 21,2 C 16,7 C 3,0 UV-I 1,9 C 58 % 78 % 50 % 1020,0 hPa 0,1 l/m 4,1 km/h (1 Bft) 0,33 h 4,9 km/h (1 Bft)
14.09.2009 15:00 21,5 C 15,5 C 0,7 UV-I 0,0 C 57 % 84 % 1 % 1019,7 hPa 0,4 l/m 3,2 km/h (1 Bft) 0,00 h 4,4 km/h (1 Bft)
14.09.2009 16:00 21,3 C 15,2 C 1,4 UV-I 0,4 C 58 % 85 % 11 % 1018,9 hPa 0,3 l/m 2,2 km/h (1 Bft) 0,00 h 3,5 km/h (1 Bft)
14.09.2009 17:00 21,4 C 15,8 C 0,3 UV-I 0,4 C 58 % 82 % 12 % 1018,8 hPa 0,0 l/m 2,8 km/h (1 Bft) 0,00 h 4,3 km/h (1 Bft)
14.09.2009 18:00 21,1 C 15,5 C 0,0 UV-I 0,0 C 58 % 81 % 0 % 1018,7 hPa 0,0 l/m 0,4 km/h (0 Bft) 0,00 h 1,0 km/h (0 Bft)
14.09.2009 19:00 20,9 C 14,8 C 0,0 UV-I 0,0 C 58 % 81 % 0 % 1018,9 hPa 0,6 l/m 0,1 km/h (0 Bft) 0,00 h 0,2 km/h (0 Bft)
14.09.2009 20:00 20,7 C 13,9 C 0,0 UV-I 0,0 C 59 % 84 % 0 % 1019,1 hPa 0,0 l/m 0,0 km/h (0 Bft) 0,00 h 0,0 km/h (0 Bft)
14.09.2009 21:00 20,6 C 13,5 C 0,0 UV-I 0,0 C 59 % 86 % 0 % 1019,4 hPa 0,4 l/m 0,0 km/h (0 Bft) 0,00 h 0,2 km/h (0 Bft)
14.09.2009 22:00 20,4 C 13,2 C 0,0 UV-I 0,0 C 59 % 88 % 0 % 1019,5 hPa 1,0 l/m 0,1 km/h (0 Bft) 0,00 h 0,2 km/h (0 Bft)
14.09.2009 23:00 20,3 C 13,0 C 0,0 UV-I 0,0 C 59 % 90 % 0 % 1019,4 hPa 0,8 l/m 0,6 km/h (0 Bft) 0,00 h 1,1 km/h (1 Bft)
15.09.2009 00:00 20,3 C 12,8 C 0,0 UV-I 0,0 C 60 % 91 % 0 % 1019,1 hPa 1,2 l/m 0,3 km/h (0 Bft) 0,00 h 1,3 km/h (1 Bft)
15.09.2009 01:00 20,3 C 12,7 C 0,0 UV-I 0,0 C 60 % 92 % 0 % 1018,5 hPa 4,8 l/m 1,4 km/h (1 Bft) 0,00 h 2,2 km/h (1 Bft)
15.09.2009 02:00 20,2 C 12,5 C 0,0 UV-I 0,0 C 60 % 93 % 0 % 1017,8 hPa 2,4 l/m 1,1 km/h (0 Bft) 0,00 h 1,1 km/h (1 Bft)
15.09.2009 03:00 20,2 C 12,5 C 0,0 UV-I 0,0 C 61 % 93 % 0 % 1017,5 hPa 0,2 l/m 0,1 km/h (0 Bft) 0,00 h 0,5 km/h (0 Bft)
15.09.2009 04:00 20,2 C 12,3 C 0,0 UV-I 0,0 C 61 % 93 % 0 % 1017,2 hPa 0,2 l/m 0,6 km/h (0 Bft) 0,00 h 0,6 km/h (0 Bft)
15.09.2009 05:00 20,1 C 12,0 C 0,0 UV-I 0,0 C 61 % 93 % 0 % 1017,1 hPa 0,0 l/m 0,0 km/h (0 Bft) 0,00 h 0,0 km/h (0 Bft)
15.09.2009 06:00 20,0 C 12,0 C 0,0 UV-I 0,0 C 61 % 94 % 0 % 1016,9 hPa 0,0 l/m 0,0 km/h (0 Bft) 0,00 h 0,0 km/h (0 Bft)
15.09.2009 07:00 20,0 C 12,7 C 0,0 UV-I 0,0 C 62 % 95 % 0 % 1017,1 hPa 0,0 l/m 0,0 km/h (0 Bft) 0,00 h 0,0 km/h (0 Bft)
15.09.2009 08:00 20,0 C 13,3 C 0,0 UV-I 0,2 C 63 % 95 % 4 % 1017,3 hPa 0,0 l/m 0,0 km/h (0 Bft) 0,00 h 0,0 km/h (0 Bft)
15.09.2009 09:00 20,0 C 14,1 C 0,1 UV-I 0,2 C 63 % 95 % 7 % 1017,5 hPa 0,0 l/m 0,0 km/h (0 Bft) 0,00 h 0,0 km/h (0 Bft)
15.09.2009 10:00 20,2 C 14,9 C 0,5 UV-I 0,5 C 63 % 95 % 14 % 1018,1 hPa 0,0 l/m 0,0 km/h (0 Bft) 0,00 h 0,0 km/h (0 Bft)
15.09.2009 11:00 20,4 C 15,6 C 0,9 UV-I 0,6 C 64 % 94 % 16 % 1018,1 hPa 0,0 l/m 0,1 km/h (0 Bft) 0,00 h 0,1 km/h (0 Bft)
15.09.2009 12:00 20,5 C 16,0 C 0,4 UV-I 0,1 C 64 % 92 % 4 % 1018,3 hPa 0,0 l/m 0,1 km/h (0 Bft) 0,00 h 0,1 km/h (0 Bft)
15.09.2009 13:00 20,7 C 16,5 C 1,6 UV-I 1,0 C 63 % 90 % 29 % 1018,2 hPa 0,0 l/m 0,5 km/h (0 Bft) 0,00 h 0,9 km/h (0 Bft)
15.09.2009 14:00 21,2 C 17,7 C 2,7 UV-I 2,6 C 62 % 86 % 73 % 1018,3 hPa 0,0 l/m 1,2 km/h (1 Bft) 0,23 h 2,1 km/h (1 Bft)
15.09.2009 15:00 21,5 C 18,3 C 1,2 UV-I 1,1 C 61 % 83 % 32 % 1018,0 hPa 0,0 l/m 0,5 km/h (0 Bft) 0,00 h 1,0 km/h (0 Bft)
15.09.2009 16:00 21,5 C 18,6 C 0,7 UV-I 0,7 C 61 % 81 % 20 % 1017,6 hPa 0,0 l/m 0,5 km/h (0 Bft) 0,00 h 0,2 km/h (0 Bft)
15.09.2009 17:00 21,4 C 18,0 C 0,0 UV-I 0,0 C 63 % 81 % 0 % 1018,0 hPa 0,0 l/m 0,1 km/h (0 Bft) 0,00 h 0,4 km/h (0 Bft)
15.09.2009 18:00 21,2 C 17,3 C 0,0 UV-I 0,0 C 63 % 82 % 0 % 1017,9 hPa 0,0 l/m 0,4 km/h (0 Bft) 0,00 h 1,1 km/h (1 Bft)
15.09.2009 19:00 21,1 C 16,7 C 0,0 UV-I 0,0 C 64 % 83 % 0 % 1017,6 hPa 0,0 l/m 0,0 km/h (0 Bft) 0,00 h 0,2 km/h (0 Bft)
15.09.2009 20:00 21,0 C 15,9 C 0,0 UV-I 0,0 C 64 % 85 % 0 % 1018,0 hPa 0,0 l/m 0,2 km/h (0 Bft) 0,00 h 0,4 km/h (0 Bft)
15.09.2009 21:00 20,8 C 14,7 C 0,0 UV-I 0,0 C 64 % 88 % 0 % 1018,5 hPa 0,0 l/m 0,0 km/h (0 Bft) 0,00 h 0,0 km/h (0 Bft)
15.09.2009 22:00 20,7 C 14,1 C 0,0 UV-I 0,0 C 64 % 91 % 0 % 1018,6 hPa 0,0 l/m 0,0 km/h (0 Bft) 0,00 h 0,1 km/h (0 Bft)
15.09.2009 23:00 20,7 C 14,4 C 0,0 UV-I 0,0 C 64 % 92 % 0 % 1018,7 hPa 0,0 l/m 0,0 km/h (0 Bft) 0,00 h 0,0 km/h (0 Bft)
16.09.2009 00:00 20,6 C 14,7 C 0,0 UV-I 0,0 C 64 % 93 % 0 % 1018,9 hPa 0,0 l/m 0,0 km/h (0 Bft) 0,00 h 0,0 km/h (0 Bft)
16.09.2009 01:00 20,6 C 15,0 C 0,0 UV-I 0,0 C 65 % 93 % 0 % 1018,3 hPa 0,0 l/m 1,3 km/h (1 Bft) 0,00 h 2,1 km/h (1 Bft)
16.09.2009 02:00 20,4 C 15,2 C 0,0 UV-I 0,0 C 65 % 93 % 0 % 1017,9 hPa 0,0 l/m 0,5 km/h (0 Bft) 0,00 h 0,4 km/h (0 Bft)
16.09.2009 03:00 20,4 C 15,2 C 0,0 UV-I 0,0 C 65 % 93 % 0 % 1017,7 hPa 0,0 l/m 0,8 km/h (0 Bft) 0,00 h 1,7 km/h (1 Bft)
16.09.2009 04:00 20,4 C 15,2 C 0,0 UV-I 0,0 C 66 % 93 % 0 % 1017,6 hPa 0,0 l/m 0,7 km/h (0 Bft) 0,00 h 1,2 km/h (1 Bft)
16.09.2009 05:00 20,4 C 15,3 C 0,0 UV-I 0,0 C 66 % 93 % 0 % 1017,5 hPa 0,0 l/m 1,7 km/h (1 Bft) 0,00 h 2,3 km/h (1 Bft)
16.09.2009 06:00 20,4 C 15,3 C 0,0 UV-I 0,0 C 66 % 93 % 0 % 1017,3 hPa 0,0 l/m 1,6 km/h (1 Bft) 0,00 h 2,6 km/h (1 Bft)
16.09.2009 07:00 20,4 C 15,3 C 0,0 UV-I 0,0 C 66 % 93 % 0 % 1017,0 hPa 0,0 l/m 1,5 km/h (1 Bft) 0,00 h 2,3 km/h (1 Bft)
16.09.2009 08:00 20,4 C 15,4 C 0,0 UV-I 0,0 C 66 % 92 % 0 % 1017,3 hPa 0,0 l/m 2,6 km/h (1 Bft) 0,00 h 3,7 km/h (1 Bft)
16.09.2009 09:00 20,4 C 15,5 C 0,0 UV-I 0,0 C 66 % 91 % 0 % 1017,1 hPa 0,0 l/m 3,6 km/h (1 Bft) 0,00 h 5,6 km/h (1 Bft)
16.09.2009 10:00 20,6 C 16,2 C 1,1 UV-I 0,8 C 65 % 88 % 22 % 1017,5 hPa 0,0 l/m 3,0 km/h (1 Bft) 0,00 h 5,0 km/h (1 Bft)
16.09.2009 11:00 20,8 C 17,1 C 1,4 UV-I 1,0 C 65 % 86 % 29 % 1017,5 hPa 0,0 l/m 3,1 km/h (1 Bft) 0,00 h 4,4 km/h (1 Bft)
16.09.2009 12:00 21,1 C 18,2 C 1,8 UV-I 1,4 C 64 % 82 % 40 % 1017,4 hPa 0,0 l/m 3,2 km/h (1 Bft) 0,00 h 4,4 km/h (1 Bft)
16.09.2009 13:00 21,2 C 18,3 C 0,8 UV-I 0,3 C 64 % 81 % 8 % 1017,2 hPa 0,0 l/m 2,2 km/h (1 Bft) 0,00 h 3,4 km/h (1 Bft)
16.09.2009 14:00 21,2 C 18,4 C 0,6 UV-I 0,3 C 64 % 80 % 8 % 1017,3 hPa 0,0 l/m 1,5 km/h (1 Bft) 0,00 h 2,3 km/h (1 Bft)
16.09.2009 15:00 21,2 C 18,3 C 0,3 UV-I 0,0 C 64 % 80 % 1 % 1017,3 hPa 0,0 l/m 3,1 km/h (1 Bft) 0,00 h 4,5 km/h (1 Bft)
16.09.2009 16:00 21,2 C 18,3 C 0,3 UV-I 0,1 C 64 % 81 % 2 % 1017,1 hPa 0,0 l/m 3,4 km/h (1 Bft) 0,00 h 4,9 km/h (1 Bft)
16.09.2009 17:00 21,2 C 18,6 C 0,0 UV-I 0,0 C 64 % 80 % 1 % 1016,8 hPa 0,0 l/m 3,3 km/h (1 Bft) 0,00 h 5,0 km/h (1 Bft)
16.09.2009 18:00 21,2 C 18,3 C 0,0 UV-I 0,0 C 64 % 82 % 0 % 1016,9 hPa 0,0 l/m 2,4 km/h (1 Bft) 0,00 h 3,6 km/h (1 Bft)
16.09.2009 19:00 21,2 C 18,2 C 0,0 UV-I 0,0 C 64 % 82 % 0 % 1017,1 hPa 0,0 l/m 3,0 km/h (1 Bft) 0,00 h 4,6 km/h (1 Bft)
16.09.2009 20:00 21,2 C 18,0 C 0,0 UV-I 0,0 C 65 % 81 % 0 % 1017,4 hPa 0,0 l/m 3,9 km/h (1 Bft) 0,00 h 5,4 km/h (1 Bft)
16.09.2009 21:00 21,0 C 17,8 C 0,0 UV-I 0,0 C 65 % 80 % 0 % 1017,6 hPa 0,0 l/m 3,0 km/h (1 Bft) 0,00 h 4,6 km/h (1 Bft)
16.09.2009 22:00 21,0 C 17,5 C 0,0 UV-I 0,0 C 64 % 79 % 0 % 1018,1 hPa 0,0 l/m 4,3 km/h (1 Bft) 0,00 h 5,8 km/h (2 Bft)
16.09.2009 23:00 20,8 C 16,6 C 0,0 UV-I 0,0 C 63 % 80 % 0 % 1018,2 hPa 0,0 l/m 5,5 km/h (1 Bft) 0,00 h 7,2 km/h (2 Bft)
17.09.2009 00:00 20,6 C 15,0 C 0,0 UV-I 0,0 C 62 % 83 % 0 % 1018,3 hPa 0,0 l/m 4,6 km/h (1 Bft) 0,00 h 6,1 km/h (2 Bft)
17.09.2009 01:00 20,3 C 14,0 C 0,0 UV-I 0,0 C 61 % 85 % 0 % 1018,2 hPa 0,0 l/m 4,7 km/h (1 Bft) 0,00 h 6,9 km/h (2 Bft)
17.09.2009 02:00 20,1 C 13,2 C 0,0 UV-I 0,0 C 61 % 86 % 0 % 1018,3 hPa 0,0 l/m 4,0 km/h (1 Bft) 0,00 h 5,2 km/h (1 Bft)
17.09.2009 03:00 19,9 C 12,6 C 0,0 UV-I 0,0 C 60 % 86 % 0 % 1018,1 hPa 0,0 l/m 3,6 km/h (1 Bft) 0,00 h 4,5 km/h (1 Bft)
17.09.2009 04:00 19,8 C 12,1 C 0,0 UV-I 0,0 C 60 % 86 % 0 % 1018,1 hPa 0,0 l/m 3,6 km/h (1 Bft) 0,00 h 4,9 km/h (1 Bft)
17.09.2009 05:00 19,7 C 11,5 C 0,0 UV-I 0,0 C 59 % 88 % 0 % 1018,0 hPa 0,0 l/m 2,7 km/h (1 Bft) 0,00 h 3,9 km/h (1 Bft)
17.09.2009 06:00 19,6 C 11,0 C 0,0 UV-I 0,0 C 59 % 89 % 0 % 1018,1 hPa 0,0 l/m 1,2 km/h (1 Bft) 0,00 h 2,0 km/h (1 Bft)
17.09.2009 07:00 19,4 C 10,5 C 0,0 UV-I 0,0 C 58 % 89 % 0 % 1018,6 hPa 0,0 l/m 1,3 km/h (1 Bft) 0,00 h 1,7 km/h (1 Bft)
17.09.2009 08:00 19,2 C 10,8 C 0,3 UV-I 0,0 C 58 % 87 % 1 % 1019,2 hPa 0,0 l/m 1,6 km/h (1 Bft) 0,00 h 2,0 km/h (1 Bft)
17.09.2009 09:00 19,3 C 11,9 C 1,0 UV-I 1,7 C 57 % 84 % 44 % 1019,6 hPa 0,0 l/m 0,9 km/h (0 Bft) 0,10 h 1,7 km/h (1 Bft)
17.09.2009 10:00 19,6 C 14,0 C 4,2 UV-I 6,2 C 56 % 78 % 100 % 1020,0 hPa 0,0 l/m 3,4 km/h (1 Bft) 0,87 h 5,4 km/h (1 Bft)
17.09.2009 11:00 19,7 C 16,0 C 9,2 UV-I 6,0 C 55 % 70 % 100 % 1020,0 hPa 0,0 l/m 4,9 km/h (1 Bft) 0,80 h 6,9 km/h (2 Bft)
17.09.2009 12:00 20,1 C 17,8 C 11,1 UV-I 6,2 C 55 % 65 % 100 % 1020,1 hPa 0,0 l/m 4,5 km/h (1 Bft) 0,73 h 6,8 km/h (2 Bft)
17.09.2009 13:00 20,9 C 19,1 C 10,4 UV-I 5,8 C 54 % 60 % 100 % 1020,2 hPa 0,0 l/m 5,0 km/h (1 Bft) 0,83 h 6,8 km/h (2 Bft)
17.09.2009 14:00 22,3 C 20,2 C 9,5 UV-I 5,0 C 50 % 56 % 100 % 1022,7 hPa 0,0 l/m 4,8 km/h (1 Bft) 0,80 h 5,8 km/h (2 Bft)
17.09.2009 15:00 23,7 C 20,4 C 5,0 UV-I 4,6 C 50 % 54 % 100 % 1024,0 hPa 0,0 l/m 5,8 km/h (2 Bft) 0,77 h 8,1 km/h (2 Bft)
17.09.2009 16:00 24,7 C 20,4 C 2,1 UV-I 4,6 C 47 % 54 % 100 % 1023,4 hPa 0,0 l/m 5,0 km/h (1 Bft) 1,00 h 5,9 km/h (2 Bft)
17.09.2009 17:00 24,2 C 19,5 C 1,3 UV-I 3,1 C 46 % 56 % 81 % 1021,5 hPa 0,0 l/m 3,8 km/h (1 Bft) 0,67 h 5,1 km/h (1 Bft)
17.09.2009 18:00 23,0 C 18,7 C 0,4 UV-I 0,3 C 48 % 57 % 8 % 1020,3 hPa 0,0 l/m 2,8 km/h (1 Bft) 0,00 h 3,5 km/h (1 Bft)
17.09.2009 19:00 22,2 C 17,5 C 0,0 UV-I 0,0 C 49 % 61 % 0 % 1020,1 hPa 0,0 l/m 0,7 km/h (0 Bft) 0,00 h 1,0 km/h (0 Bft)
17.09.2009 20:00 21,8 C 15,6 C 0,0 UV-I 0,0 C 52 % 68 % 0 % 1020,2 hPa 0,0 l/m 0,1 km/h (0 Bft) 0,00 h 0,1 km/h (0 Bft)
17.09.2009 21:00 21,4 C 14,3 C 0,0 UV-I 0,0 C 53 % 73 % 0 % 1020,8 hPa 0,0 l/m 0,3 km/h (0 Bft) 0,00 h 0,7 km/h (0 Bft)
17.09.2009 22:00 21,1 C 13,3 C 0,0 UV-I 0,0 C 54 % 77 % 0 % 1021,0 hPa 0,0 l/m 0,0 km/h (0 Bft) 0,00 h 0,0 km/h (0 Bft)
17.09.2009 23:00 20,9 C 12,2 C 0,0 UV-I 0,0 C 55 % 81 % 0 % 1020,9 hPa 0,0 l/m 0,0 km/h (0 Bft) 0,00 h 0,0 km/h (0 Bft)
18.09.2009 00:00 20,7 C 11,4 C 0,0 UV-I 0,0 C 55 % 84 % 0 % 1020,9 hPa 0,0 l/m 0,0 km/h (0 Bft) 0,00 h 0,1 km/h (0 Bft)
18.09.2009 01:00 20,5 C 10,7 C 0,0 UV-I 0,0 C 55 % 86 % 0 % 1020,7 hPa 0,0 l/m 0,0 km/h (0 Bft) 0,00 h 0,0 km/h (0 Bft)
18.09.2009 02:00 20,3 C 10,0 C 0,0 UV-I 0,0 C 54 % 87 % 0 % 1020,7 hPa 0,0 l/m 0,0 km/h (0 Bft) 0,00 h 0,0 km/h (0 Bft)
18.09.2009 03:00 20,2 C 9,5 C 0,0 UV-I 0,0 C 54 % 89 % 0 % 1020,3 hPa 0,0 l/m 0,0 km/h (0 Bft) 0,00 h 0,0 km/h (0 Bft)
18.09.2009 04:00 20,0 C 8,9 C 0,0 UV-I 0,0 C 54 % 90 % 0 % 1020,0 hPa 0,0 l/m 0,0 km/h (0 Bft) 0,00 h 0,0 km/h (0 Bft)
18.09.2009 05:00 19,8 C 8,5 C 0,0 UV-I 0,0 C 54 % 90 % 0 % 1019,9 hPa 0,0 l/m 0,0 km/h (0 Bft) 0,00 h 0,0 km/h (0 Bft)
18.09.2009 06:00 19,5 C 8,1 C 0,0 UV-I 0,0 C 53 % 91 % 0 % 1019,7 hPa 0,0 l/m 0,0 km/h (0 Bft) 0,00 h 0,0 km/h (0 Bft)
18.09.2009 07:00 19,1 C 7,7 C 0,0 UV-I 0,0 C 53 % 91 % 0 % 1019,2 hPa 0,0 l/m 0,0 km/h (0 Bft) 0,00 h 0,0 km/h (0 Bft)
18.09.2009 08:00 18,9 C 8,0 C 0,3 UV-I 0,2 C 54 % 93 % 5 % 1019,2 hPa 0,0 l/m 0,0 km/h (0 Bft) 0,00 h 0,1 km/h (0 Bft)
18.09.2009 09:00 19,2 C 10,0 C 1,0 UV-I 1,6 C 56 % 94 % 40 % 1019,5 hPa 0,0 l/m 0,0 km/h (0 Bft) 0,13 h 0,0 km/h (0 Bft)
18.09.2009 10:00 19,6 C 13,1 C 3,3 UV-I 8,8 C 56 % 92 % 100 % 1019,8 hPa 0,0 l/m 0,5 km/h (0 Bft) 0,83 h 1,4 km/h (1 Bft)
18.09.2009 11:00 20,0 C 17,3 C 8,3 UV-I 8,9 C 56 % 78 % 100 % 1019,7 hPa 0,0 l/m 1,7 km/h (1 Bft) 0,82 h 3,8 km/h (1 Bft)
18.09.2009 12:00 20,5 C 20,3 C 9,9 UV-I 7,6 C 56 % 66 % 100 % 1019,5 hPa 0,0 l/m 1,5 km/h (1 Bft) 0,97 h 1,6 km/h (1 Bft)
18.09.2009 13:00 21,3 C 22,4 C 9,0 UV-I 7,0 C 55 % 58 % 100 % 1019,2 hPa 0,0 l/m 2,1 km/h (1 Bft) 0,90 h 3,5 km/h (1 Bft)
18.09.2009 14:00 22,8 C 24,1 C 8,7 UV-I 6,5 C 52 % 54 % 100 % 1021,1 hPa 0,0 l/m 1,4 km/h (1 Bft) 1,00 h 1,8 km/h (1 Bft)
18.09.2009 15:00 24,1 C 25,1 C 4,9 UV-I 6,0 C 49 % 51 % 100 % 1022,0 hPa 0,0 l/m 1,3 km/h (1 Bft) 0,93 h 1,7 km/h (1 Bft)
18.09.2009 16:00 24,9 C 25,0 C 2,2 UV-I 5,3 C 47 % 53 % 100 % 1020,7 hPa 0,0 l/m 1,6 km/h (1 Bft) 0,83 h 2,7 km/h (1 Bft)
18.09.2009 17:00 24,6 C 24,0 C 1,3 UV-I 3,8 C 48 % 56 % 84 % 1018,7 hPa 0,0 l/m 0,8 km/h (0 Bft) 0,63 h 2,0 km/h (1 Bft)
18.09.2009 18:00 23,6 C 22,8 C 0,4 UV-I 0,3 C 50 % 59 % 8 % 1017,4 hPa 0,0 l/m 0,4 km/h (0 Bft) 0,00 h 0,7 km/h (0 Bft)
18.09.2009 19:00 23,0 C 21,4 C 0,0 UV-I 0,0 C 52 % 64 % 0 % 1017,0 hPa 0,0 l/m 0,0 km/h (0 Bft) 0,00 h 0,1 km/h (0 Bft)
18.09.2009 20:00 22,6 C 19,7 C 0,0 UV-I 0,0 C 53 % 70 % 0 % 1016,6 hPa 0,0 l/m 0,0 km/h (0 Bft) 0,00 h 0,0 km/h (0 Bft)
18.09.2009 21:00 22,2 C 18,1 C 0,0 UV-I 0,0 C 55 % 74 % 0 % 1017,0 hPa 0,0 l/m 0,0 km/h (0 Bft) 0,00 h 0,0 km/h (0 Bft)
18.09.2009 22:00 22,0 C 16,8 C 0,0 UV-I 0,0 C 56 % 79 % 0 % 1017,0 hPa 0,0 l/m 0,0 km/h (0 Bft) 0,00 h 0,0 km/h (0 Bft)
18.09.2009 23:00 21,7 C 15,6 C 0,0 UV-I 0,0 C 57 % 82 % 0 % 1016,7 hPa 0,0 l/m 0,0 km/h (0 Bft) 0,00 h 0,0 km/h (0 Bft)
19.09.2009 00:00 21,5 C 14,7 C 0,0 UV-I 0,0 C 58 % 85 % 0 % 1016,9 hPa 0,0 l/m 0,0 km/h (0 Bft) 0,00 h 0,0 km/h (0 Bft)
19.09.2009 01:00 21,4 C 14,5 C 0,0 UV-I 0,0 C 59 % 87 % 0 % 1016,7 hPa 0,0 l/m 0,0 km/h (0 Bft) 0,00 h 0,0 km/h (0 Bft)
19.09.2009 02:00 21,2 C 14,1 C 0,0 UV-I 0,0 C 59 % 88 % 0 % 1016,5 hPa 0,0 l/m 0,0 km/h (0 Bft) 0,00 h 0,0 km/h (0 Bft)
19.09.2009 03:00 21,2 C 13,8 C 0,0 UV-I 0,0 C 59 % 89 % 0 % 1016,3 hPa 0,0 l/m 0,0 km/h (0 Bft) 0,00 h 0,0 km/h (0 Bft)
19.09.2009 04:00 21,1 C 13,5 C 0,0 UV-I 0,0 C 59 % 90 % 0 % 1015,9 hPa 0,0 l/m 0,0 km/h (0 Bft) 0,00 h 0,0 km/h (0 Bft)
19.09.2009 05:00 21,0 C 13,0 C 0,0 UV-I 0,0 C 59 % 91 % 0 % 1015,7 hPa 0,0 l/m 0,0 km/h (0 Bft) 0,00 h 0,0 km/h (0 Bft)
19.09.2009 06:00 20,9 C 12,6 C 0,0 UV-I 0,0 C 59 % 91 % 0 % 1015,7 hPa 0,0 l/m 0,0 km/h (0 Bft) 0,00 h 0,0 km/h (0 Bft)
19.09.2009 07:00 20,8 C 12,6 C 0,0 UV-I 0,0 C 60 % 92 % 1 % 1015,8 hPa 0,0 l/m 0,0 km/h (0 Bft) 0,00 h 0,0 km/h (0 Bft)
19.09.2009 08:00 20,9 C 13,2 C 0,4 UV-I 0,4 C 60 % 93 % 13 % 1015,9 hPa 0,0 l/m 0,0 km/h (0 Bft) 0,00 h 0,0 km/h (0 Bft)
19.09.2009 09:00 21,0 C 14,8 C 1,1 UV-I 2,3 C 61 % 94 % 60 % 1016,4 hPa 0,0 l/m 0,6 km/h (0 Bft) 0,13 h 1,0 km/h (0 Bft)
19.09.2009 10:00 21,3 C 17,7 C 2,9 UV-I 6,8 C 61 % 88 % 100 % 1016,3 hPa 0,0 l/m 1,3 km/h (1 Bft) 0,93 h 2,8 km/h (1 Bft)
19.09.2009 11:00 21,5 C 20,4 C 4,8 UV-I 4,7 C 61 % 79 % 98 % 1016,7 hPa 0,0 l/m 1,6 km/h (1 Bft) 0,97 h 2,4 km/h (1 Bft)
19.09.2009 12:00 21,9 C 23,2 C 8,1 UV-I 6,4 C 61 % 70 % 100 % 1016,4 hPa 0,0 l/m 0,7 km/h (0 Bft) 0,80 h 0,7 km/h (0 Bft)
19.09.2009 13:00 22,6 C 25,2 C 6,2 UV-I 4,4 C 60 % 63 % 91 % 1016,6 hPa 0,0 l/m 1,0 km/h (0 Bft) 0,60 h 1,7 km/h (1 Bft)
19.09.2009 14:00 23,7 C 26,4 C 6,7 UV-I 4,8 C 58 % 58 % 100 % 1018,3 hPa 0,0 l/m 1,4 km/h (1 Bft) 0,83 h 2,3 km/h (1 Bft)
19.09.2009 15:00 24,9 C 27,4 C 4,1 UV-I 4,4 C 55 % 54 % 100 % 1019,3 hPa 0,0 l/m 1,6 km/h (1 Bft) 0,83 h 2,4 km/h (1 Bft)
19.09.2009 16:00 25,7 C 27,3 C 2,0 UV-I 3,9 C 53 % 54 % 97 % 1018,9 hPa 0,0 l/m 1,1 km/h (1 Bft) 0,63 h 1,6 km/h (1 Bft)
19.09.2009 17:00 25,2 C 26,0 C 1,1 UV-I 0,7 C 54 % 58 % 20 % 1017,3 hPa 0,0 l/m 0,1 km/h (0 Bft) 0,03 h 0,3 km/h (0 Bft)
19.09.2009 18:00 24,3 C 24,8 C 0,2 UV-I 0,0 C 57 % 62 % 0 % 1016,5 hPa 0,0 l/m 0,0 km/h (0 Bft) 0,00 h 0,0 km/h (0 Bft)
19.09.2009 19:00 23,8 C 23,2 C 0,0 UV-I 0,0 C 58 % 68 % 0 % 1016,3 hPa 0,0 l/m 0,0 km/h (0 Bft) 0,00 h 0,0 km/h (0 Bft)
19.09.2009 20:00 23,3 C 21,0 C 0,0 UV-I 0,0 C 61 % 76 % 0 % 1016,6 hPa 0,0 l/m 0,0 km/h (0 Bft) 0,00 h 0,0 km/h (0 Bft)
19.09.2009 21:00 22,9 C 19,2 C 0,0 UV-I 0,0 C 64 % 82 % 0 % 1016,8 hPa 0,0 l/m 0,0 km/h (0 Bft) 0,00 h 0,0 km/h (0 Bft)
19.09.2009 22:00 22,6 C 18,0 C 0,0 UV-I 0,0 C 64 % 85 % 0 % 1017,0 hPa 0,0 l/m 0,0 km/h (0 Bft) 0,00 h 0,0 km/h (0 Bft)
19.09.2009 23:00 22,4 C 17,1 C 0,0 UV-I 0,0 C 65 % 87 % 0 % 1017,2 hPa 0,0 l/m 0,0 km/h (0 Bft) 0,00 h 0,0 km/h (0 Bft)
20.09.2009 00:00 22,2 C 16,4 C 0,0 UV-I 0,0 C 65 % 88 % 0 % 1017,3 hPa 0,0 l/m 0,0 km/h (0 Bft) 0,00 h 0,0 km/h (0 Bft)
20.09.2009 01:00 21,9 C 15,9 C 0,0 UV-I 0,0 C 65 % 90 % 0 % 1017,3 hPa 0,0 l/m 0,1 km/h (0 Bft) 0,00 h 0,0 km/h (0 Bft)
20.09.2009 02:00 21,1 C 15,5 C 0,0 UV-I 0,0 C 67 % 91 % 0 % 1017,2 hPa 0,0 l/m 0,0 km/h (0 Bft) 0,00 h 0,0 km/h (0 Bft)
20.09.2009 03:00 20,8 C 14,9 C 0,0 UV-I 0,0 C 67 % 91 % 0 % 1017,2 hPa 0,0 l/m 0,0 km/h (0 Bft) 0,00 h 0,0 km/h (0 Bft)
20.09.2009 04:00 20,5 C 14,4 C 0,0 UV-I 0,0 C 67 % 92 % 0 % 1017,2 hPa 0,0 l/m 0,0 km/h (0 Bft) 0,00 h 0,0 km/h (0 Bft)
20.09.2009 05:00 20,3 C 13,9 C 0,0 UV-I 0,0 C 67 % 92 % 0 % 1017,1 hPa 0,0 l/m 0,0 km/h (0 Bft) 0,00 h 0,0 km/h (0 Bft)
20.09.2009 06:00 20,1 C 13,9 C 0,0 UV-I 0,0 C 67 % 93 % 0 % 1017,1 hPa 0,0 l/m 0,0 km/h (0 Bft) 0,00 h 0,0 km/h (0 Bft)
20.09.2009 07:00 19,9 C 13,9 C 0,0 UV-I 0,0 C 68 % 93 % 0 % 1017,7 hPa 0,0 l/m 0,0 km/h (0 Bft) 0,00 h 0,0 km/h (0 Bft)
20.09.2009 08:00 20,0 C 14,1 C 0,3 UV-I 0,1 C 68 % 94 % 4 % 1018,0 hPa 0,0 l/m 0,0 km/h (0 Bft) 0,00 h 0,0 km/h (0 Bft)
20.09.2009 09:00 20,5 C 15,2 C 0,9 UV-I 1,2 C 69 % 95 % 35 % 1018,7 hPa 0,0 l/m 0,3 km/h (0 Bft) 0,10 h 0,7 km/h (0 Bft)
20.09.2009 10:00 21,3 C 17,3 C 2,7 UV-I 5,6 C 67 % 93 % 100 % 1019,6 hPa 0,0 l/m 1,0 km/h (0 Bft) 1,00 h 2,4 km/h (1 Bft)
20.09.2009 11:00 21,6 C 20,2 C 6,1 UV-I 7,0 C 67 % 85 % 100 % 1020,2 hPa 0,0 l/m 1,5 km/h (1 Bft) 1,00 h 2,5 km/h (1 Bft)
20.09.2009 12:00 22,1 C 23,0 C 9,1 UV-I 7,1 C 66 % 72 % 100 % 1020,7 hPa 0,0 l/m 1,9 km/h (1 Bft) 1,00 h 3,2 km/h (1 Bft)
20.09.2009 13:00 22,8 C 24,3 C 7,0 UV-I 5,2 C 64 % 64 % 100 % 1021,1 hPa 0,0 l/m 3,9 km/h (1 Bft) 1,00 h 6,3 km/h (2 Bft)
20.09.2009 14:00 24,0 C 25,1 C 7,3 UV-I 5,6 C 61 % 62 % 100 % 1023,1 hPa 0,0 l/m 3,5 km/h (1 Bft) 1,00 h 4,8 km/h (1 Bft)
20.09.2009 15:00 25,1 C 25,5 C 4,3 UV-I 5,0 C 58 % 58 % 100 % 1024,0 hPa 0,0 l/m 3,9 km/h (1 Bft) 0,93 h 5,4 km/h (1 Bft)
20.09.2009 16:00 25,2 C 24,5 C 2,0 UV-I 1,8 C 57 % 63 % 51 % 1023,0 hPa 0,0 l/m 3,2 km/h (1 Bft) 0,17 h 5,1 km/h (1 Bft)
20.09.2009 17:00 24,8 C 23,2 C 1,4 UV-I 1,8 C 58 % 68 % 52 % 1022,0 hPa 0,0 l/m 4,4 km/h (1 Bft) 0,33 h 6,7 km/h (2 Bft)
20.09.2009 18:00 24,2 C 21,8 C 0,6 UV-I 0,0 C 59 % 72 % 1 % 1021,8 hPa 0,0 l/m 3,2 km/h (1 Bft) 0,00 h 4,0 km/h (1 Bft)
20.09.2009 19:00 23,7 C 20,5 C 0,0 UV-I 0,0 C 61 % 76 % 0 % 1021,9 hPa 0,0 l/m 2,5 km/h (1 Bft) 0,00 h 3,7 km/h (1 Bft)
20.09.2009 20:00 23,2 C 19,0 C 0,0 UV-I 0,0 C 62 % 80 % 0 % 1022,8 hPa 0,0 l/m 0,9 km/h (0 Bft) 0,00 h 1,0 km/h (0 Bft)
20.09.2009 21:00 22,9 C 17,8 C 0,0 UV-I 0,0 C 63 % 83 % 0 % 1023,4 hPa 0,0 l/m 0,1 km/h (0 Bft) 0,00 h 0,2 km/h (0 Bft)
20.09.2009 22:00 22,6 C 16,8 C 0,0 UV-I 0,0 C 64 % 86 % 0 % 1023,9 hPa 0,0 l/m 0,1 km/h (0 Bft) 0,00 h 0,2 km/h (0 Bft)
20.09.2009 23:00 22,4 C 16,0 C 0,0 UV-I 0,0 C 64 % 87 % 0 % 1024,2 hPa 0,0 l/m 0,2 km/h (0 Bft) 0,00 h 0,7 km/h (0 Bft)
Min-Datum _ 18.09.09 18.09.09 14.09.09 14.09.09 17.09.09 18.09.09 14.09.09 19.09.09 - 14.09.09 - 14.09.09
_ Min-Zeit 07:48 07:44 00:00 00:00 17:00 15:08 00:00 05:16 - 01:02 - 00:02
Minimum _ 18,9 C 7,6 C 0,0 UV-I 0,0 C 45 % 50 % 0 % 1015,5 hPa - 0,0 km/h (0 Bft) - 0,0 km/h (0 Bft)
Max-Datum _ 19.09.09 19.09.09 17.09.09 18.09.09 20.09.09 15.09.09 14.09.09 20.09.09 15.09.09 17.09.09 14.09.09 14.09.09
_ Max-Zeit 16:23 15:48 12:40 10:56 09:04 09:10 14:38 14:56 01:28 15:56 14:34 13:42
Maximum _ 25,8 C 27,7 C 11,4 UV-I 9,9 C 69 % 96 % 100 % 1024,8 hPa 4,8 l/m 8,4 km/h
SW (2 Bft)
0,03 h 19,7 km/h
SW (3 Bft)
Durchschnitt _ 21,2 C 16,2 C 1,2 UV-I 1,2 C 60 % 82 % 22 % 1018,8 hPa #12,4 l/m 1,4 km/h (1 Bft) #26:29 h 2,0 km/h (1 Bft)
© 2012 W. Hausmann